Pagrindinis puslapis
METAR-TAF:

METAR-TAF

Oro uostai :

Larnaka, Kipras

platuma: 34-53N, ilguma: 033-38E, Aukštis: 2 m

Dabartinis oras

Ataskaita buvo paskelbta 32 minutes, ne 09:30 UTC
Vėjas 11 kt iš Šiaurės/Šiaurės Rytų
Temperatūra 13°C
Drėgmė 58%
Slėgis 1022 hPa
Matomumas 10 km arba daugiau
Mažai debesys ne aukštis 3000 ft
Išsisklaidę debesys ne aukštis 4000 ft
Su prošvaistėmis ne aukštis 5000 ft

METAR: LCLK 200930Z 03011KT 9999 FEW030 SCT040 BKN050 13/05 Q1022 NOSIG

Laikas: 12:02 (10:02 UTC)

Prognozė

Ataskaita buvo paskelbta 4 valandos ir 32 minutes, ne 05:30 UTC
Prognozė galioja nuo 20 metu 06 UTC su 21 metu 06 UTC
Vėjas 15 kt iš Šiaurės
Matomumas 10 km arba daugiau
Mažai debesys ne aukštis 2000 ft
Išsisklaidę debesys ne aukštis 5000 ft
Tikimybė 30% :
Laikinai
nuo 20 metu 06 UTC su 20 metu 15 UTC
Matomumas: 5000 m
Išsisklaidę debesys ne aukštis 2000 ft, aukštai iškilę kamuoliniai debesys.
lietus

TAF: LCLK 200530Z 2006/2106 01015KT 9999 FEW020 SCT050 PROB30 TEMPO 2006/2015 5000 SHRA SCT020TCU

Orai ataskaitas ir orų prognozės (METAR, TAF).

turimą stotys yra geltonos ir raudonos taškus žemėlapyje.

Perkelti pele per norėdami pamatyti stoties vardą.

Tada spustelėkite, norėdami matyti oro stebėjimo ir prognozės.

Norėdami pakeisti žemėlapį: spustelėkite ant žalios mygtukų su juodo kryžiaus žemyn,; žalią mygtuką su brūkšneliu, jei norite nutolinti; arba žalių rodyklių gretimoms žemėlapius.


METAR-TAF: